NCAR-RAP Real-Time Weather Data

Output produced by METARs form (26 May 2022  07:00 UTC)
found at http://weather.rap.ucar.edu/surface/
 
KNEW 260553Z 16003KT 10SM CLR 22/21 A2995 RMK AO2 SLP134 60004 T02220206 10233 20222 403060211 51014
KNEW 260453Z 19003KT 10SM CLR 22/21 A2994 RMK AO2 SLP132 T02220206
KNEW 260353Z 24003KT 10SM CLR 23/21 A2993 RMK AO2 SLP127 T02330206
KNEW 260253Z 00000KT 10SM CLR 23/20 A2990 RMK AO2 SLP120 60004 T02330200 53022
KNEW 260153Z 13008KT 10SM CLR 23/21 A2987 RMK AO2 SLP109 T02330206
KNEW 260053Z 12019G29KT 10SM CLR 23/21 A2982 RMK AO2 PK WND 13034/0001 LTG DSNT E RAE30 SLP092 P0004 T02280206
KNEW 252353Z 13020KT 6SM RA BKN100 OVC120 23/20 A2984 RMK AO2 LTG DSNT SE RAB19 PRESFR SLP098 P0008 60077 T02280200 10244 20211 58036
KNEW 252253Z 15007KT 10SM SCT110 23/20 A2988 RMK AO2 SLP113 T02280200
KNEW 252153Z 00000KT 10SM FEW120 23/19 A2990 RMK AO2 RAE18 SLP120 P0000 T02330189
KNEW 252112Z 25006KT 10SM -RA FEW031 BKN085 OVC100 23/19 A2994 RMK AO2 LTG DSNT NE AND E P0000 T02280194
KNEW 252053Z AUTO 25009KT 10SM VCTS -RA SCT034 BKN070 OVC095 22/19 A2995 RMK AO2 LTG DSNT E TSB22E43 SLP134 P0024 60069 T02220189 51019
KNEW 252045Z 25006KT 2SM VCTS -RA SCT034 BKN065 OVC080 22/19 A2994 RMK AO2 LTG DSNT E AND SE TSB22E43 P0024 T02170189
KNEW 252036Z 23012KT 1 1/4SM +TSRA BR SCT032 BKN065 OVC110 22/21 A2996 RMK AO2 LTG DSNT E AND SE TSB22 P0020 T02220206
KNEW 252027Z 21013KT 2 1/2SM TSRA BR FEW025 BKN065 OVC100 23/21 A2996 RMK AO2 LTG DSNT N AND SE TSB22 P0010 T02280206
KNEW 251953Z 27011KT 7SM VCTS RA FEW070 OVC095 23/21 A2993 RMK AO2 PK WND 26027/1907 LTG DSNT NE AND S AND SW TSE35 SLP127 P0023 T02280206
KNEW 251941Z 28013KT 5SM VCTS -RA FEW038 BKN090 OVC110 23/21 A2992 RMK AO2 PK WND 26027/1907 LTG DSNT ALQDS TSE35 P0022 T02330206
KNEW 251931Z 28018KT 10SM -TSRA SCT039 BKN070 OVC110 23/21 A2993 RMK AO2 PK WND 26027/1907 LTG DSNT ALQDS P0019 T02330206
KNEW 251913Z 26017KT 2 1/2SM +TSRA BR FEW010 SCT025 OVC035 23/21 A2994 RMK AO2 PK WND 26027/1907 VIS 1 1/2V5 LTG DSNT ALQDS P0013 T02280211
KNEW 251911Z 26019KT 3SM +TSRA BR FEW010 BKN025 OVC035 23/21 A2994 RMK AO2 PK WND 26027/1907 LTG DSNT ALQDS P0012 T02280211
KNEW 251903Z 26021KT 2SM TSRA BR FEW008 SCT013 OVC023 23/22 A2994 RMK AO2 PK WND 26027/1854 LTG DSNT ALQDS P0007 T02280217
KNEW 251900Z 26020G38KT 3/4SM +TSRA BR FEW008 BKN020 OVC025 23/22 A2994 RMK AO2 PK WND 26027/1854 LTG DSNT ALQDS P0007 T02330217
KNEW 251853Z 27028G38KT 1SM +TSRA BR SCT006 BKN020 OVC025 24/22 A2994 RMK AO2 PK WND 27038/1850 LTG DSNT ALQDS RAE04B45 TSB48 PRESRR SLP131 P0022 T02390217
KNEW 251849Z 27029G35KT 4SM -TSRA BR FEW006 BKN019 OVC027 24/22 A2992 RMK AO2 PK WND 27035/1849 LTG DSNT ALQDS RAE04B45 TSB48 PRESRR P0003
KNEW 251840Z 29019KT 10SM VCTS FEW012 OVC021 24/22 A2990 RMK AO2 LTG DSNT ALQDS RAE04 P0000 T02390217
KNEW 251833Z 31018G23KT 10SM SCT012 BKN019 OVC025 24/22 A2990 RMK AO2 LTG DSNT ALQDS RAE04 P0000 T02440217
KNEW 251818Z 30020KT 10SM VCTS OVC014 24/22 A2990 RMK AO2 LTG DSNT ALQDS RAE04 P0000 T02390217
KNEW 251802Z 30013KT 8SM -RA FEW009 BKN016 OVC021 24/22 A2990 RMK AO2 LTG DSNT ALQDS P0000 T02390217
KNEW 251753Z 28011KT 5SM VCTS RA BKN015 BKN022 OVC030 24/21 A2989 RMK AO2 PK WND 27027/1736 WSHFT 1736 LTG DSNT ALQDS RAE21B53 TSE06B17E32 SLP115 P0018 60072 T02390211 10306 20233 53002
KNEW 251738Z 28018G27KT 10SM VCTS FEW010 BKN027 OVC042 25/22 A2990 RMK AO2 PK WND 27027/1736 LTG DSNT NW-NE RAE21 TSE06B17E32 P0015 T02500217
KNEW 251723Z 19005KT 10SM TS SCT023 BKN028 OVC046 24/21 A2989 RMK AO2 LTG DSNT W-NE RAE21 TSE06B17 P0015 T02440211
KNEW 251715Z 21006KT 2SM -RA BKN021 BKN031 24/21 A2988 RMK AO2 LTG DSNT W-NE TSE06 P0015 T02440211
KNEW 251710Z 21008KT 1 3/4SM VCTS +RA BKN024 BKN037 OVC047 24/21 A2988 RMK AO2 LTG DSNT ALQDS TSE06 P0015 T02390211
KNEW 251706Z 23008KT 3SM VCTS -RA BKN026 BKN037 OVC060 24/21 A2988 RMK AO2 LTG DSNT ALQDS TSE06 P0012 T02390211
KNEW 251702Z 23010KT 2SM -TSRA BKN028 BKN035 OVC060 24/21 A2988 RMK AO2 LTG DSNT ALQDS P0006 T02390211
KNEW 251653Z 24007G28KT 3/4SM +TSRA BKN028 BKN050 OVC065 23/19 A2988 RMK AO2 PK WND 18040/1620 LTG DSNT W-NE RAB1559E08B17 TSB38 SLP112 P0054 T02330189
KNEW 251650Z 23008G28KT 190V270 1SM +TSRA BKN028 BKN050 OVC065 23/19 A2989 RMK AO2 PK WND 18040/1620 LTG DSNT W-NE RAB1559E08B17 TSB38 P0047
KNEW 251638Z 18016G26KT 2SM +TSRA FEW026 BKN032 BKN048 24/19 A2990 RMK AO2 PK WND 18040/1620 VIS 1 1/4V5 LTG DSNT ALQDS RAB1559E08B17 TSB38 P0024 T02390194
KNEW 251631Z 17019G33KT 1SM VCTS RA SCT027 BKN036 BKN048 24/21 A2990 RMK AO2 PK WND 18040/1620 LTG DSNT S-NW RAB1559E08B17 P0019 T02390206
KNEW 251622Z 19027G40KT 1 1/2SM VCTS RA FEW016 BKN027 BKN037 27/22 A2989 RMK AO2 PK WND 18040/1620 LTG DSNT SW AND NW RAB1559E08B17 P0011 T02670222
KNEW 251616Z 17018G24KT 10SM VCTS FEW022 SCT034 BKN070 29/22 A2989 RMK AO2 LTG DSNT S-NW RAB1559E08 P0000 T02890222
KNEW 251553Z 17016KT 10SM SCT037 SCT049 31/22 A2988 RMK AO2 PK WND 18026/1507 LTG DSNT SW SLP112 T03060222
KNEW 251453Z 17019G25KT 10SM FEW029 FEW034 SCT041 31/22 A2988 RMK AO2 PK WND 17028/1425 SLP113 T03060222 50002
KNEW 251353Z 16021G25KT 10SM FEW020 29/23 A2989 RMK AO2 SLP115 T02890228
KNEW 251253Z 17014KT 10SM FEW016 27/23 A2989 RMK AO2 SLP113 T02670233
KNEW 251153Z 16012KT 10SM SCT016 27/24 A2988 RMK AO2 SLP111 T02670239 10267 20261 53005
KNEW 251053Z AUTO 15008KT 10SM SCT016 26/23 A2987 RMK AO2 SLP107 T02610233
KNEW 250953Z AUTO 14007KT 10SM CLR 26/23 A2986 RMK AO2 SLP106 T02610233
KNEW 250853Z AUTO 15008KT 10SM CLR 26/23 A2986 RMK AO2 SLP106 T02610233 56007
KNEW 250753Z AUTO 16009KT 10SM CLR 26/23 A2986 RMK AO2 SLP106 T02610233
KNEW 250653Z AUTO 16009KT 10SM CLR 26/23 A2988 RMK AO2 SLP110 T02610233
KNEW 250553Z AUTO 14008KT 10SM CLR 27/23 A2988 RMK AO2 SLP113 T02670233 10283 20267 403170239 58000
KNEW 250453Z 13005KT 10SM CLR 27/23 A2989 RMK AO2 SLP116 T02670233
KNEW 250353Z 16006KT 10SM CLR 27/23 A2990 RMK AO2 SLP118 T02670228
KNEW 250253Z 14010KT 10SM CLR 27/23 A2989 RMK AO2 SLP113 T02720233 52006
KNEW 250153Z 15008KT 10SM CLR 27/22 A2987 RMK AO2 LTG DSNT N SLP109 T02720222
KNEW 250053Z 16011KT 10SM CLR 28/22 A2988 RMK AO2 SLP111 T02780222
KNEW 242353Z 16013KT 10SM CLR 28/22 A2987 RMK AO2 SLP107 T02830217 10317 20283 55003
KNEW 242253Z 16013KT 10SM CLR 29/22 A2987 RMK AO2 LTG DSNT N SLP107 T02940222
KNEW 242153Z 15016KT 10SM FEW029 SCT060 SCT110 29/23 A2986 RMK AO2 LTG DSNT SW AND W SLP105 T02940228
KNEW 242053Z 16014KT 10SM FEW032 FEW043 31/22 A2988 RMK AO2 LTG DSNT SW SLP110 T03060222 56014
KNEW 241953Z 15018KT 10SM FEW033 SCT042 SCT049 31/22 A2988 RMK AO2 LTG DSNT SW SLP113 T03060222
KNEW 241853Z 15015KT 10SM FEW029 SCT037 BKN065 31/23 A2990 RMK AO2 SLP118 T03110228
KNEW 241753Z 16012KT 10SM SCT034 BKN043 31/22 A2992 RMK AO2 PK WND 17026/1718 SLP125 60000 T03060222 10317 20261 56013
KNEW 241653Z 17015KT 10SM FEW029 FEW034 31/23 A2993 RMK AO2 LTG DSNT NW SLP129 T03060228
KNEW 241553Z 16016G20KT 10SM SCT026 SCT034 BKN041 29/22 A2994 RMK AO2 RAB35E46 SLP133 P0000 T02940222
KNEW 241453Z 16011KT 10SM FEW020 SCT027 BKN045 28/23 A2996 RMK AO2 SLP137 T02830228 51017
KNEW 241353Z 15009KT 10SM FEW021 FEW029 27/23 A2993 RMK AO2 SLP129 T02720233
KNEW 241253Z 00000KT 10SM BKN017 OVC022 26/23 A2994 RMK AO2 SLP131 T02610228
KNEW 241229Z 00000KT 10SM BKN018 BKN030 26/23 A2992 RMK AO2 T02560228
KNEW 241153Z 12009KT 10SM SCT055 BKN070 BKN090 26/23 A2991 RMK AO2 RAE31 SLP120 P0001 60028 70034 T02560233 10256 20239 58009
KNEW 241053Z AUTO 13005KT 10SM -RA BKN100 25/23 A2993 RMK AO2 SLP127 P0012 T02500228
KNEW 241025Z AUTO 04007KT 7SM RA SCT013 BKN030 OVC110 25/23 A2994 RMK AO2 P0008 T02500228
KNEW 241019Z AUTO 01004KT 6SM RA BR BKN014 BKN029 OVC050 25/23 A2994 RMK AO2 P0006 T02500228
KNEW 240953Z AUTO 04004KT 9SM RA FEW017 BKN030 OVC100 25/23 A2994 RMK AO2 LTG DSNT NE AND W SLP131 P0011 T02500228
KNEW 240946Z AUTO 07005KT 8SM RA SCT022 BKN035 OVC080 25/23 A2994 RMK AO2 LTG DSNT NE AND W P0010 T02500228
KNEW 240909Z AUTO 06004KT 8SM RA SCT020 BKN026 BKN110 26/23 A2994 RMK AO2 LTG DSNT N AND SW P0003 T02560228
KNEW 240853Z AUTO 09005KT 10SM -RA FEW020 BKN110 26/22 A2993 RMK AO2 LTG DSNT N AND NE AND SW RAB37 SLP129 P0001 60004 T02560222 55004
KNEW 240842Z AUTO 10005KT 10SM VCTS -RA SCT018 BKN120 26/22 A2993 RMK AO2 LTG DSNT NE RAB37 P0000 T02560222
KNEW 240753Z AUTO 04007KT 10SM BKN020 BKN060 OVC090 25/22 A2993 RMK AO2 LTG DSNT W-NE RAB23E53 TSB13 SLP127 P0000 T02500222
KNEW 240738Z AUTO 01007KT 10SM VCTS -RA SCT016 BKN024 OVC090 25/22 A2993 RMK AO2 LTG DSNT N AND NE RAB23 TSB13 P0000 T02500217
KNEW 240719Z AUTO 02007KT 10SM TS FEW018 BKN024 OVC080 25/22 A2994 RMK AO2 LTG DSNT NE AND SW TSB13 T02500217
KNEW 240712Z AUTO 05003KT 10SM VCTS FEW018 BKN028 BKN046 25/22 A2994 RMK AO2 LTG DSNT N AND NE AND SW CIG 023V037 T02500217